Ayersville, North Carolina
Current Conditions -  °F | °C
As of 12:55 PM on Friday 19 Dec 2014 (Local Time) from KSIF Reporting Station
Clear Clear  
Wind Chill: 51°   Ceiling: Unl
Heat Index: 51°   Visibility: 10mi
Dew Point: 25°   Wind: 5mph
Humidity: 36%   Direction: 350°N
Pressure: 30.12"   Gusts: NA
Location:  36.4479°N, 79.9473°W
Report Text: KSIF 191755Z AUTO 35004KT 10SM CLR 11/M04 A3012 RMK AO2 T01061041 10108 21031
Loading
Personal Weather Stations






























Interactive Weather Map New forecast layout! Learn more

10-Day Weather Forecast

Advertisements
Track Severe Weather on mobile